createdAt,value
2019-03-16T00:01:04.983Z,949.90
2019-03-16T00:03:31.294Z,949.89
2019-03-16T00:05:57.705Z,949.94
2019-03-16T00:08:24.119Z,949.92
2019-03-16T00:10:50.514Z,950.03
2019-03-16T00:13:16.788Z,950.04
2019-03-16T00:15:43.093Z,950.01
2019-03-16T00:18:09.403Z,950.00
2019-03-16T00:20:35.708Z,950.02
2019-03-16T00:23:02.020Z,950.06
2019-03-16T00:25:28.331Z,950.02
2019-03-16T00:27:54.640Z,949.89
2019-03-16T00:30:20.949Z,949.91
2019-03-16T00:32:47.253Z,949.90
2019-03-16T00:35:13.563Z,949.81
2019-03-16T00:37:39.887Z,949.71
2019-03-16T00:40:06.192Z,949.81
2019-03-16T00:42:32.497Z,949.75
2019-03-16T00:44:58.810Z,949.66
2019-03-16T00:47:25.113Z,949.61
2019-03-16T00:49:51.414Z,949.57
2019-03-16T00:52:17.716Z,949.55
2019-03-16T00:54:44.057Z,949.56
2019-03-16T00:57:10.364Z,949.52
2019-03-16T00:59:36.676Z,949.56
2019-03-16T01:02:02.994Z,949.55
2019-03-16T01:04:29.296Z,949.57
2019-03-16T01:06:55.606Z,949.66
2019-03-16T01:09:21.914Z,949.72
2019-03-16T01:11:48.225Z,949.72
2019-03-16T01:14:14.532Z,949.66
2019-03-16T01:16:40.849Z,949.67
2019-03-16T01:19:07.186Z,949.69
2019-03-16T01:21:33.500Z,949.66
2019-03-16T01:23:59.814Z,949.61
2019-03-16T01:26:26.116Z,949.53
2019-03-16T01:28:52.424Z,949.48
2019-03-16T01:31:18.740Z,949.49
2019-03-16T01:33:45.044Z,949.51
2019-03-16T01:36:11.355Z,949.54
2019-03-16T01:38:37.668Z,949.57
2019-03-16T01:41:03.973Z,949.67
2019-03-16T01:43:30.279Z,949.79
2019-03-16T01:45:56.586Z,949.68
2019-03-16T01:48:22.917Z,949.77
2019-03-16T01:50:49.218Z,949.84
2019-03-16T01:53:15.538Z,949.94
2019-03-16T01:55:41.834Z,949.91
2019-03-16T01:58:08.148Z,949.79
2019-03-16T02:00:34.466Z,949.81
2019-03-16T02:03:00.773Z,949.81
2019-03-16T02:05:27.098Z,949.89
2019-03-16T02:07:53.412Z,949.84
2019-03-16T02:10:19.728Z,949.80
2019-03-16T02:12:46.031Z,949.80
2019-03-16T02:15:12.340Z,949.72
2019-03-16T02:17:38.653Z,949.71
2019-03-16T02:20:04.964Z,949.81
2019-03-16T02:22:31.281Z,949.77
2019-03-16T02:24:57.588Z,949.73
2019-03-16T02:27:23.920Z,949.75
2019-03-16T02:29:50.230Z,949.70
2019-03-16T02:32:16.544Z,949.83
2019-03-16T02:34:42.854Z,949.66
2019-03-16T02:37:09.161Z,949.75
2019-03-16T02:39:35.478Z,949.68
2019-03-16T02:42:01.829Z,949.60
2019-03-16T02:44:28.139Z,949.56
2019-03-16T02:46:54.481Z,949.59
2019-03-16T02:49:20.785Z,949.66
2019-03-16T02:51:47.094Z,949.51
2019-03-16T02:54:13.402Z,949.37
2019-03-16T02:56:39.739Z,949.52
2019-03-16T02:59:06.130Z,949.47
2019-03-16T03:01:32.675Z,949.56
2019-03-16T03:03:58.986Z,949.64
2019-03-16T03:06:25.299Z,949.70
2019-03-16T03:08:51.604Z,949.74
2019-03-16T03:11:17.933Z,949.70
2019-03-16T03:13:44.268Z,949.68
2019-03-16T03:16:10.552Z,949.62
2019-03-16T03:18:36.865Z,949.64
2019-03-16T03:21:03.228Z,949.70
2019-03-16T03:23:29.480Z,949.59
2019-03-16T03:25:55.806Z,949.63
2019-03-16T03:28:22.145Z,949.59
2019-03-16T03:30:48.472Z,949.58
2019-03-16T03:33:15.021Z,949.55
2019-03-16T03:35:41.108Z,949.62
2019-03-16T03:38:07.408Z,949.63
2019-03-16T03:40:33.720Z,949.68
2019-03-16T03:43:00.045Z,949.63
2019-03-16T03:45:26.353Z,949.61
2019-03-16T03:47:52.663Z,949.64
2019-03-16T03:50:18.973Z,949.57
2019-03-16T03:52:45.286Z,949.63
2019-03-16T03:55:11.602Z,949.64
2019-03-16T03:57:37.913Z,949.54
2019-03-16T04:00:04.226Z,949.60
2019-03-16T04:02:30.559Z,949.52
2019-03-16T04:04:56.875Z,949.53
2019-03-16T04:07:23.206Z,949.57
2019-03-16T04:09:49.481Z,949.52
2019-03-16T04:12:15.794Z,949.45
2019-03-16T04:14:42.100Z,949.46
2019-03-16T04:17:08.409Z,949.46
2019-03-16T04:19:34.820Z,949.31
2019-03-16T04:22:01.028Z,949.31
2019-03-16T04:24:27.357Z,949.32
2019-03-16T04:26:53.669Z,949.17
2019-03-16T04:29:20.939Z,949.13
2019-03-16T04:31:46.281Z,949.10
2019-03-16T04:34:12.587Z,949.05
2019-03-16T04:36:38.902Z,949.09
2019-03-16T04:39:05.220Z,949.03
2019-03-16T04:41:31.549Z,948.99
2019-03-16T04:43:57.859Z,948.87
2019-03-16T04:46:24.187Z,948.88
2019-03-16T04:48:50.490Z,948.94
2019-03-16T04:51:16.797Z,949.04
2019-03-16T04:53:43.109Z,949.14
2019-03-16T04:56:09.417Z,949.24
2019-03-16T04:58:35.727Z,949.45
2019-03-16T05:01:02.030Z,949.43
2019-03-16T05:03:28.359Z,949.59
2019-03-16T05:05:54.663Z,949.74
2019-03-16T05:08:20.988Z,949.69
2019-03-16T05:10:47.301Z,949.78
2019-03-16T05:13:13.610Z,949.81
2019-03-16T05:15:39.918Z,949.66
2019-03-16T05:18:06.222Z,949.55
2019-03-16T05:20:32.565Z,949.62
2019-03-16T05:22:58.873Z,949.58
2019-03-16T05:25:25.176Z,949.59
2019-03-16T05:27:51.504Z,949.74
2019-03-16T05:30:17.820Z,949.90
2019-03-16T05:32:44.135Z,949.78
2019-03-16T05:35:10.436Z,949.85
2019-03-16T05:37:36.747Z,949.78
2019-03-16T05:40:03.061Z,949.72
2019-03-16T05:42:29.378Z,949.72
2019-03-16T05:44:55.691Z,949.76
2019-03-16T05:47:21.998Z,949.73
2019-03-16T05:49:48.333Z,949.89
2019-03-16T05:52:14.653Z,949.88
2019-03-16T05:54:40.991Z,949.90
2019-03-16T05:57:07.323Z,949.91
2019-03-16T05:59:33.698Z,949.95
2019-03-16T06:02:00.006Z,950.12
2019-03-16T06:04:26.318Z,950.08
2019-03-16T06:06:52.628Z,950.22
2019-03-16T06:09:18.936Z,950.24
2019-03-16T06:11:45.339Z,950.33
2019-03-16T06:14:11.652Z,950.48
2019-03-16T06:16:38.035Z,950.44
2019-03-16T06:19:04.349Z,950.44
2019-03-16T06:21:30.672Z,950.43
2019-03-16T06:23:56.982Z,950.48
2019-03-16T06:26:23.291Z,950.36
2019-03-16T06:28:49.624Z,950.21
2019-03-16T06:31:15.934Z,950.33
2019-03-16T06:33:42.237Z,950.38
2019-03-16T06:36:08.553Z,950.36
2019-03-16T06:38:34.887Z,950.48
2019-03-16T06:41:01.188Z,950.42
2019-03-16T06:43:27.500Z,950.41
2019-03-16T06:45:53.835Z,950.48
2019-03-16T06:48:20.154Z,950.44
2019-03-16T06:50:46.456Z,950.41
2019-03-16T06:53:12.770Z,950.32
2019-03-16T06:55:39.096Z,950.21
2019-03-16T06:58:05.413Z,950.19
2019-03-16T07:00:31.712Z,950.30
2019-03-16T07:02:58.045Z,950.29
2019-03-16T07:05:37.240Z,950.20
2019-03-16T07:07:50.676Z,950.22
2019-03-16T07:10:16.989Z,950.27
2019-03-16T07:12:43.293Z,950.37
2019-03-16T07:15:09.627Z,950.44
2019-03-16T07:17:35.946Z,950.51
2019-03-16T07:20:02.261Z,950.35
2019-03-16T07:22:28.574Z,950.34
2019-03-16T07:24:54.885Z,950.38
2019-03-16T07:27:26.027Z,950.41
2019-03-16T07:29:47.531Z,950.36
2019-03-16T07:32:13.842Z,950.36
2019-03-16T07:34:40.154Z,950.46
2019-03-16T07:37:06.472Z,950.33
2019-03-16T07:39:32.775Z,950.33
2019-03-16T07:42:00.559Z,950.23
2019-03-16T07:44:25.399Z,950.25
2019-03-16T07:46:51.724Z,950.20
2019-03-16T07:49:18.045Z,950.31
2019-03-16T07:51:44.345Z,950.38
2019-03-16T07:54:10.652Z,950.31
2019-03-16T07:56:36.956Z,950.22
2019-03-16T07:59:03.284Z,950.26
2019-03-16T08:01:29.589Z,950.24
2019-03-16T08:03:55.907Z,950.24
2019-03-16T08:06:22.212Z,950.17
2019-03-16T08:08:48.548Z,950.23
2019-03-16T08:11:14.832Z,950.23
2019-03-16T08:13:41.137Z,950.18
2019-03-16T08:16:07.464Z,950.09
2019-03-16T08:18:33.779Z,950.08
2019-03-16T08:21:00.213Z,950.03
2019-03-16T08:23:26.509Z,950.02
2019-03-16T08:25:52.869Z,950.06
2019-03-16T08:28:19.159Z,950.05
2019-03-16T08:30:45.464Z,950.01
2019-03-16T08:33:11.772Z,949.95
2019-03-16T08:35:38.128Z,949.93
2019-03-16T08:38:04.391Z,949.87
2019-03-16T08:40:30.693Z,949.93
2019-03-16T08:42:57.001Z,949.89
2019-03-16T08:45:23.310Z,949.87
2019-03-16T08:47:49.647Z,949.84
2019-03-16T08:50:15.960Z,949.91
2019-03-16T08:52:42.263Z,949.88
2019-03-16T08:55:08.578Z,949.87
2019-03-16T08:57:34.882Z,949.88
2019-03-16T09:00:01.194Z,949.88
2019-03-16T09:02:27.506Z,949.79
2019-03-16T09:04:53.826Z,949.74
2019-03-16T09:07:20.133Z,949.73
2019-03-16T09:09:46.464Z,949.70
2019-03-16T09:12:12.768Z,949.67
2019-03-16T09:14:39.073Z,949.62
2019-03-16T09:17:05.381Z,949.51
2019-03-16T09:19:31.692Z,949.40
2019-03-16T09:21:57.999Z,949.51
2019-03-16T09:24:24.310Z,949.55
2019-03-16T09:26:50.623Z,949.57
2019-03-16T09:29:16.937Z,949.55
2019-03-16T09:31:43.274Z,949.50
2019-03-16T09:34:09.581Z,949.42
2019-03-16T09:36:35.914Z,949.39
2019-03-16T09:39:02.209Z,949.27
2019-03-16T09:41:28.516Z,949.32
2019-03-16T09:43:54.829Z,949.31
2019-03-16T09:46:21.161Z,949.34
2019-03-16T09:48:47.474Z,949.27
2019-03-16T09:51:13.783Z,949.33
2019-03-16T09:53:40.093Z,949.27
2019-03-16T09:56:06.402Z,949.27
2019-03-16T09:58:32.831Z,949.09
2019-03-16T10:00:59.170Z,949.19
2019-03-16T10:03:25.468Z,949.20
2019-03-16T10:05:51.780Z,949.23
2019-03-16T10:08:19.308Z,949.13
2019-03-16T10:10:44.406Z,949.10
2019-03-16T10:13:10.733Z,949.16
2019-03-16T10:15:37.044Z,949.03
2019-03-16T10:18:03.358Z,948.96
2019-03-16T10:20:29.686Z,948.95
2019-03-16T10:22:55.978Z,948.86
2019-03-16T10:25:22.282Z,948.70
2019-03-16T10:27:48.682Z,948.76
2019-03-16T10:30:14.934Z,948.71
2019-03-16T10:32:41.246Z,948.78
2019-03-16T10:35:07.554Z,948.91
2019-03-16T10:37:33.859Z,948.92
2019-03-16T10:40:00.252Z,948.90
2019-03-16T10:42:26.471Z,948.77
2019-03-16T10:44:52.795Z,948.72
2019-03-16T10:47:19.181Z,948.57
2019-03-16T10:49:45.495Z,948.57
2019-03-16T10:52:11.837Z,948.51
2019-03-16T10:54:38.107Z,948.53
2019-03-16T10:57:04.602Z,948.44
2019-03-16T10:59:30.721Z,948.51
2019-03-16T11:01:57.038Z,948.39
2019-03-16T11:04:23.345Z,948.46
2019-03-16T11:06:49.709Z,948.45
2019-03-16T11:09:16.023Z,948.30
2019-03-16T11:11:42.351Z,948.38
2019-03-16T11:14:08.661Z,948.41
2019-03-16T11:16:34.969Z,948.46
2019-03-16T11:19:01.280Z,948.46
2019-03-16T11:21:27.717Z,948.35
2019-03-16T11:23:54.050Z,948.38
2019-03-16T11:26:20.373Z,948.26
2019-03-16T11:28:46.680Z,948.33
2019-03-16T11:31:13.021Z,948.33
2019-03-16T11:33:39.337Z,948.40
2019-03-16T11:36:05.656Z,948.34
2019-03-16T11:38:32.269Z,948.34
2019-03-16T11:40:58.580Z,948.34
2019-03-16T11:43:24.892Z,948.22
2019-03-16T11:45:51.206Z,948.24
2019-03-16T11:48:17.518Z,948.32
2019-03-16T11:50:43.832Z,948.29
2019-03-16T11:53:10.138Z,948.28
2019-03-16T11:55:36.447Z,948.29
2019-03-16T11:58:02.753Z,948.33
2019-03-16T12:00:29.121Z,948.29
2019-03-16T12:02:55.423Z,948.30
2019-03-16T12:05:21.726Z,948.32
2019-03-16T12:07:48.100Z,948.20
2019-03-16T12:10:14.346Z,948.23
2019-03-16T12:12:40.694Z,948.12
2019-03-16T12:15:06.973Z,948.14
2019-03-16T12:17:33.300Z,948.22
2019-03-16T12:19:59.614Z,948.26
2019-03-16T12:22:25.947Z,948.29
2019-03-16T12:24:52.262Z,948.25
2019-03-16T12:27:18.594Z,948.19
2019-03-16T12:29:44.902Z,948.27
2019-03-16T12:32:11.225Z,948.17
2019-03-16T12:34:37.575Z,948.24
2019-03-16T12:37:03.893Z,948.27
2019-03-16T12:39:30.201Z,948.29
2019-03-16T12:41:56.564Z,948.28
2019-03-16T12:44:22.915Z,948.34
2019-03-16T12:46:49.211Z,948.37
2019-03-16T12:49:15.528Z,948.40
2019-03-16T12:51:41.828Z,948.41
2019-03-16T12:54:08.174Z,948.36
2019-03-16T12:56:34.518Z,948.33
2019-03-16T12:59:09.933Z,948.39
2019-03-16T13:01:27.182Z,948.29
2019-03-16T13:03:53.493Z,948.36
2019-03-16T13:06:19.847Z,948.40
2019-03-16T13:08:46.169Z,948.48
2019-03-16T13:11:12.477Z,948.44
2019-03-16T13:13:38.816Z,948.32
2019-03-16T13:16:05.118Z,948.28
2019-03-16T13:18:31.468Z,948.43
2019-03-16T13:20:57.776Z,948.31
2019-03-16T13:23:24.150Z,948.37
2019-03-16T13:25:50.455Z,948.38
2019-03-16T13:28:16.784Z,948.46
2019-03-16T13:30:43.106Z,948.50
2019-03-16T13:33:09.442Z,948.51
2019-03-16T13:35:35.747Z,948.57
2019-03-16T13:38:02.090Z,948.38
2019-03-16T13:40:28.405Z,948.59
2019-03-16T13:42:54.827Z,948.47
2019-03-16T13:45:21.147Z,948.56
2019-03-16T13:47:47.453Z,948.62
2019-03-16T13:50:13.825Z,948.60
2019-03-16T13:52:40.132Z,948.54
2019-03-16T13:55:06.435Z,948.59
2019-03-16T13:57:32.749Z,948.59
2019-03-16T14:00:10.865Z,948.49
2019-03-16T14:02:25.392Z,948.56
2019-03-16T14:04:51.702Z,948.48
2019-03-16T14:07:18.011Z,948.49
2019-03-16T14:09:47.553Z,948.56
2019-03-16T14:12:13.891Z,948.55
2019-03-16T14:14:40.222Z,948.57
2019-03-16T14:17:06.561Z,948.53
2019-03-16T14:19:32.883Z,948.58
2019-03-16T14:21:59.296Z,948.58
2019-03-16T14:24:25.635Z,948.63
2019-03-16T14:26:51.966Z,948.61
2019-03-16T14:29:18.357Z,948.64
2019-03-16T14:31:44.677Z,948.58
2019-03-16T14:34:11.080Z,948.63
2019-03-16T14:36:37.405Z,948.67
2019-03-16T14:39:03.713Z,948.64
2019-03-16T14:41:30.020Z,948.80
2019-03-16T14:43:56.377Z,948.82
2019-03-16T14:46:22.718Z,948.93
2019-03-16T14:48:49.059Z,948.91
2019-03-16T14:51:15.369Z,948.88
2019-03-16T14:53:41.869Z,948.87
2019-03-16T14:56:08.175Z,948.91
2019-03-16T14:58:34.498Z,948.91
2019-03-16T15:01:00.825Z,948.81
2019-03-16T15:03:27.201Z,948.82
2019-03-16T15:05:53.518Z,948.83
2019-03-16T15:08:19.825Z,948.87
2019-03-16T15:10:46.132Z,948.88
2019-03-16T15:13:12.477Z,948.91
2019-03-16T15:15:38.796Z,948.98
2019-03-16T15:18:05.115Z,948.96
2019-03-16T15:20:31.447Z,948.97
2019-03-16T15:22:57.759Z,949.00
2019-03-16T15:25:24.065Z,949.01
2019-03-16T15:27:50.379Z,949.04
2019-03-16T15:30:16.718Z,949.10
2019-03-16T15:32:43.067Z,949.14
2019-03-16T15:35:09.369Z,949.08
2019-03-16T15:37:35.700Z,949.03
2019-03-16T15:40:02.017Z,949.03
2019-03-16T15:42:28.351Z,949.01
2019-03-16T15:44:54.665Z,948.94
2019-03-16T15:47:20.979Z,948.99
2019-03-16T15:49:47.299Z,948.99
2019-03-16T15:52:13.604Z,949.10
2019-03-16T15:54:40.111Z,949.10
2019-03-16T15:57:06.457Z,949.03
2019-03-16T15:59:32.756Z,949.15
2019-03-16T16:01:59.079Z,949.24
2019-03-16T16:04:25.380Z,949.19
2019-03-16T16:06:51.704Z,949.21
2019-03-16T16:09:18.043Z,949.23
2019-03-16T16:11:44.358Z,949.24
2019-03-16T16:14:10.640Z,949.24
2019-03-16T16:16:36.959Z,949.24
2019-03-16T16:19:03.264Z,949.31
2019-03-16T16:21:29.601Z,949.27
2019-03-16T16:23:55.967Z,949.35
2019-03-16T16:26:22.283Z,949.33
2019-03-16T16:28:48.612Z,949.40
2019-03-16T16:31:16.559Z,949.48
2019-03-16T16:33:41.220Z,949.47
2019-03-16T16:36:08.619Z,949.57
2019-03-16T16:38:33.866Z,949.54
2019-03-16T16:41:00.179Z,949.55
2019-03-16T16:43:26.563Z,949.61
2019-03-16T16:45:52.883Z,949.67
2019-03-16T16:48:19.210Z,949.70
2019-03-16T16:50:45.538Z,949.70
2019-03-16T16:53:11.844Z,949.81
2019-03-16T16:55:38.159Z,949.77
2019-03-16T16:58:04.470Z,949.73
2019-03-16T17:00:30.778Z,949.76
2019-03-16T17:02:57.089Z,949.78
2019-03-16T17:05:23.766Z,949.79
2019-03-16T17:07:50.086Z,949.83
2019-03-16T17:10:16.398Z,949.84
2019-03-16T17:12:42.715Z,949.92
2019-03-16T17:15:09.036Z,949.93
2019-03-16T17:17:35.805Z,949.99
2019-03-16T17:20:01.721Z,950.04
2019-03-16T17:22:28.037Z,950.06
2019-03-16T17:24:54.396Z,950.05
2019-03-16T17:27:20.682Z,950.07
2019-03-16T17:29:47.060Z,950.12
2019-03-16T17:32:13.381Z,950.14
2019-03-16T17:34:41.242Z,950.13
2019-03-16T17:37:06.028Z,950.15
2019-03-16T17:39:32.343Z,950.19
2019-03-16T17:41:58.718Z,950.21
2019-03-16T17:44:25.235Z,950.18
2019-03-16T17:46:51.510Z,950.27
2019-03-16T17:49:17.835Z,950.30
2019-03-16T17:51:44.166Z,950.31
2019-03-16T17:54:10.518Z,950.35
2019-03-16T17:56:36.871Z,950.42
2019-03-16T17:59:03.184Z,950.45
2019-03-16T18:01:29.518Z,950.38
2019-03-16T18:03:55.834Z,950.45
2019-03-16T18:06:22.165Z,950.49
2019-03-16T18:08:48.489Z,950.49
2019-03-16T18:11:14.804Z,950.47
2019-03-16T18:13:41.134Z,950.53
2019-03-16T18:16:07.446Z,950.54
2019-03-16T18:18:33.778Z,950.58
2019-03-16T18:21:00.133Z,950.59
2019-03-16T18:23:26.432Z,950.53
2019-03-16T18:25:52.732Z,950.59
2019-03-16T18:28:19.035Z,950.60
2019-03-16T18:30:45.354Z,950.62
2019-03-16T18:33:11.698Z,950.61
2019-03-16T18:35:38.023Z,950.66
2019-03-16T18:38:04.328Z,950.70
2019-03-16T18:40:30.643Z,950.79
2019-03-16T18:42:56.979Z,950.79
2019-03-16T18:45:23.290Z,950.84
2019-03-16T18:47:49.612Z,950.88
2019-03-16T18:50:15.923Z,950.93
2019-03-16T18:52:42.244Z,950.90
2019-03-16T18:55:08.602Z,950.89
2019-03-16T18:57:34.898Z,950.87
2019-03-16T19:00:01.209Z,950.97
2019-03-16T19:02:27.527Z,951.00
2019-03-16T19:04:53.837Z,951.02
2019-03-16T19:07:20.507Z,951.12
2019-03-16T19:09:46.805Z,951.12
2019-03-16T19:12:13.112Z,951.12
2019-03-16T19:14:39.452Z,951.16
2019-03-16T19:17:05.765Z,951.19
2019-03-16T19:19:32.083Z,951.28
2019-03-16T19:22:01.258Z,951.29
2019-03-16T19:24:27.567Z,951.27
2019-03-16T19:26:53.890Z,951.33
2019-03-16T19:29:20.203Z,951.29
2019-03-16T19:31:46.525Z,951.35
2019-03-16T19:34:12.837Z,951.35
2019-03-16T19:36:39.148Z,951.33
2019-03-16T19:39:05.460Z,951.26
2019-03-16T19:41:31.787Z,951.20
2019-03-16T19:43:58.088Z,951.20
2019-03-16T19:46:24.419Z,951.16
2019-03-16T19:48:50.724Z,951.21
2019-03-16T19:51:17.033Z,951.29
2019-03-16T19:53:43.353Z,951.35
2019-03-16T19:56:09.699Z,951.41
2019-03-16T19:58:36.012Z,951.44
2019-03-16T20:01:02.347Z,951.48
2019-03-16T20:03:28.662Z,951.52
2019-03-16T20:05:54.984Z,951.52
2019-03-16T20:08:21.308Z,951.60
2019-03-16T20:10:47.679Z,951.64
2019-03-16T20:13:13.962Z,951.66
2019-03-16T20:15:40.269Z,951.68
2019-03-16T20:18:06.587Z,951.68
2019-03-16T20:20:32.896Z,951.70
2019-03-16T20:22:59.222Z,951.65
2019-03-16T20:25:25.540Z,951.70
2019-03-16T20:27:51.873Z,951.69
2019-03-16T20:30:26.489Z,951.73
2019-03-16T20:32:48.206Z,951.73
2019-03-16T20:35:10.847Z,951.77
2019-03-16T20:37:37.131Z,951.82
2019-03-16T20:40:03.501Z,951.80
2019-03-16T20:42:29.808Z,951.79
2019-03-16T20:44:56.087Z,951.80
2019-03-16T20:47:22.399Z,951.80
2019-03-16T20:49:48.709Z,951.74
2019-03-16T20:52:15.064Z,951.80
2019-03-16T20:54:41.349Z,951.77
2019-03-16T20:57:07.668Z,951.82
2019-03-16T20:59:33.971Z,951.88
2019-03-16T21:02:00.304Z,951.87
2019-03-16T21:04:26.614Z,951.94
2019-03-16T21:06:52.924Z,951.95
2019-03-16T21:09:19.236Z,952.00
2019-03-16T21:11:45.541Z,951.99
2019-03-16T21:14:11.858Z,952.02
2019-03-16T21:16:38.173Z,951.98
2019-03-16T21:19:04.497Z,952.05
2019-03-16T21:21:30.801Z,952.08
2019-03-16T21:23:57.127Z,952.11
2019-03-16T21:26:23.432Z,952.09
2019-03-16T21:28:49.758Z,952.12
2019-03-16T21:31:16.118Z,952.15
2019-03-16T21:33:42.471Z,952.21
2019-03-16T21:36:08.783Z,952.18
2019-03-16T21:38:35.093Z,952.25
2019-03-16T21:41:01.411Z,952.22
2019-03-16T21:43:27.738Z,952.26
2019-03-16T21:45:54.044Z,952.30
2019-03-16T21:48:20.356Z,952.24
2019-03-16T21:50:46.674Z,952.26
2019-03-16T21:53:12.982Z,952.36
2019-03-16T21:55:39.349Z,952.31
2019-03-16T21:58:05.660Z,952.29
2019-03-16T22:00:31.974Z,952.31
2019-03-16T22:02:58.285Z,952.36
2019-03-16T22:05:24.616Z,952.31
2019-03-16T22:07:50.941Z,952.30
2019-03-16T22:10:17.250Z,952.28
2019-03-16T22:12:43.628Z,952.29
2019-03-16T22:15:09.972Z,952.28
2019-03-16T22:17:36.282Z,952.35
2019-03-16T22:20:02.595Z,952.33
2019-03-16T22:22:28.909Z,952.33
2019-03-16T22:24:55.230Z,952.37
2019-03-16T22:27:21.561Z,952.39
2019-03-16T22:29:47.887Z,952.33
2019-03-16T22:32:14.210Z,952.42
2019-03-16T22:34:42.638Z,952.41
2019-03-16T22:37:06.857Z,952.38
2019-03-16T22:39:33.183Z,952.39
2019-03-16T22:41:59.522Z,952.41
2019-03-16T22:44:25.834Z,952.48
2019-03-16T22:46:52.148Z,952.50
2019-03-16T22:49:18.481Z,952.36
2019-03-16T22:51:44.800Z,952.37
2019-03-16T22:54:11.144Z,952.29
2019-03-16T22:56:37.452Z,952.35
2019-03-16T22:59:03.777Z,952.25
2019-03-16T23:01:32.995Z,952.27
2019-03-16T23:04:06.953Z,952.19
2019-03-16T23:06:25.645Z,952.22
2019-03-16T23:08:52.008Z,952.25
2019-03-16T23:11:18.272Z,952.23
2019-03-16T23:13:44.624Z,952.27
2019-03-16T23:16:10.989Z,952.32
2019-03-16T23:18:37.250Z,952.31
2019-03-16T23:21:03.565Z,952.30
2019-03-16T23:23:29.891Z,952.40
2019-03-16T23:25:56.242Z,952.40
2019-03-16T23:28:22.552Z,952.39
2019-03-16T23:30:48.867Z,952.44
2019-03-16T23:33:15.194Z,952.41
2019-03-16T23:35:41.497Z,952.47
2019-03-16T23:38:09.609Z,952.40
2019-03-16T23:40:34.140Z,952.38
2019-03-16T23:43:00.587Z,952.44
2019-03-16T23:45:26.890Z,952.48
2019-03-16T23:47:56.002Z,952.42
2019-03-16T23:50:22.310Z,952.40
2019-03-16T23:52:48.752Z,952.46
2019-03-16T23:55:14.947Z,952.42
2019-03-16T23:57:41.253Z,952.49
